createdAt,value
2019-03-08T00:00:43.667Z,84.90
2019-03-08T00:03:12.353Z,85.20
2019-03-08T00:05:41.080Z,85.30
2019-03-08T00:08:09.666Z,85.40
2019-03-08T00:10:38.396Z,85.30
2019-03-08T00:13:07.028Z,84.90
2019-03-08T00:15:36.077Z,84.50
2019-03-08T00:18:04.715Z,83.80
2019-03-08T00:20:33.433Z,85.20
2019-03-08T00:23:02.144Z,85.20
2019-03-08T00:25:30.744Z,84.50
2019-03-08T00:27:59.321Z,85.20
2019-03-08T00:30:28.216Z,84.20
2019-03-08T00:32:56.870Z,83.70
2019-03-08T00:35:25.495Z,84.00
2019-03-08T00:37:54.086Z,84.40
2019-03-08T00:40:22.781Z,83.60
2019-03-08T00:42:51.527Z,84.30
2019-03-08T00:45:20.512Z,82.90
2019-03-08T00:48:01.416Z,83.30
2019-03-08T00:50:30.088Z,83.70
2019-03-08T00:52:58.680Z,84.00
2019-03-08T00:55:27.337Z,82.90
2019-03-08T00:57:56.108Z,83.30
2019-03-08T01:00:24.936Z,82.80
2019-03-08T01:02:53.519Z,83.30
2019-03-08T01:05:22.100Z,83.60
2019-03-08T01:07:50.714Z,83.80
2019-03-08T01:10:19.372Z,82.40
2019-03-08T01:12:48.231Z,83.30
2019-03-08T01:15:17.238Z,82.50
2019-03-08T01:17:45.873Z,82.70
2019-03-08T01:20:16.507Z,82.70
2019-03-08T01:22:45.109Z,83.30
2019-03-08T01:25:13.689Z,82.60
2019-03-08T01:28:15.134Z,83.20
2019-03-08T01:30:43.831Z,83.70
2019-03-08T01:33:12.573Z,82.60
2019-03-08T01:35:41.251Z,82.40
2019-03-08T01:38:09.880Z,82.60
2019-03-08T01:40:38.471Z,82.80
2019-03-08T01:43:07.361Z,82.90
2019-03-08T01:45:55.292Z,83.20
2019-03-08T01:48:23.927Z,82.90
2019-03-08T01:50:52.544Z,82.80
2019-03-08T01:53:21.155Z,83.00
2019-03-08T01:55:49.976Z,82.00
2019-03-08T01:58:18.559Z,81.70
2019-03-08T02:00:47.153Z,82.00
2019-03-08T02:03:17.229Z,82.30
2019-03-08T02:05:45.956Z,82.70
2019-03-08T02:08:14.703Z,81.80
2019-03-08T02:10:43.315Z,81.90
2019-03-08T02:13:11.953Z,82.20
2019-03-08T02:15:40.555Z,81.90
2019-03-08T02:18:09.139Z,81.40
2019-03-08T02:20:37.904Z,81.50
2019-03-08T02:23:06.484Z,81.60
2019-03-08T02:25:35.164Z,81.70
2019-03-08T02:28:03.865Z,81.80
2019-03-08T02:30:32.488Z,81.70
2019-03-08T02:33:01.133Z,81.20
2019-03-08T02:35:29.770Z,81.50
2019-03-08T02:37:58.352Z,81.30
2019-03-08T02:40:34.880Z,81.20
2019-03-08T02:43:05.384Z,81.20
2019-03-08T02:45:34.077Z,81.40
2019-03-08T02:48:02.806Z,81.20
2019-03-08T02:50:33.803Z,81.70
2019-03-08T02:53:02.532Z,81.90
2019-03-08T02:55:31.596Z,81.60
2019-03-08T02:58:00.210Z,82.00
2019-03-08T03:00:30.998Z,81.00
2019-03-08T03:02:59.581Z,81.10
2019-03-08T03:05:28.174Z,81.10
2019-03-08T03:07:56.784Z,81.30
2019-03-08T03:10:25.383Z,80.70
2019-03-08T03:12:53.964Z,80.50
2019-03-08T03:15:22.570Z,80.70
2019-03-08T03:17:51.211Z,80.30
2019-03-08T03:20:21.205Z,80.00
2019-03-08T03:22:49.879Z,79.80
2019-03-08T03:25:18.502Z,80.40
2019-03-08T03:27:47.094Z,80.40
2019-03-08T03:30:15.993Z,80.00
2019-03-08T03:32:44.602Z,80.30
2019-03-08T03:35:13.261Z,80.40
2019-03-08T03:37:41.841Z,80.30
2019-03-08T03:40:10.851Z,80.50
2019-03-08T03:42:39.834Z,80.30
2019-03-08T03:45:09.391Z,80.60
2019-03-08T03:47:37.983Z,81.10
2019-03-08T03:50:07.379Z,81.00
2019-03-08T03:52:36.304Z,80.40
2019-03-08T03:55:05.316Z,80.50
2019-03-08T03:57:33.920Z,80.60
2019-03-08T04:00:03.167Z,80.50
2019-03-08T04:02:31.840Z,80.60
2019-03-08T04:05:00.812Z,80.50
2019-03-08T04:07:29.487Z,80.80
2019-03-08T04:09:58.118Z,80.80
2019-03-08T04:12:26.735Z,81.00
2019-03-08T04:14:55.350Z,81.10
2019-03-08T04:17:23.975Z,81.00
2019-03-08T04:19:52.544Z,80.90
2019-03-08T04:22:21.460Z,81.00
2019-03-08T04:24:50.041Z,81.50
2019-03-08T04:27:18.631Z,81.40
2019-03-08T04:29:47.204Z,81.20
2019-03-08T04:32:18.847Z,81.00
2019-03-08T04:34:47.437Z,81.40
2019-03-08T04:37:16.456Z,81.60
2019-03-08T04:39:45.087Z,81.60
2019-03-08T04:42:13.689Z,81.50
2019-03-08T04:44:42.285Z,81.50
2019-03-08T04:47:10.985Z,81.80
2019-03-08T04:49:39.564Z,81.80
2019-03-08T04:52:08.377Z,81.70
2019-03-08T04:54:37.020Z,81.90
2019-03-08T04:57:05.626Z,82.30
2019-03-08T04:59:34.281Z,82.30
2019-03-08T05:02:02.903Z,81.80
2019-03-08T05:04:31.483Z,81.90
2019-03-08T05:07:00.448Z,81.50
2019-03-08T05:09:29.053Z,81.80
2019-03-08T05:11:57.640Z,81.60
2019-03-08T05:14:26.502Z,81.90
2019-03-08T05:16:55.089Z,81.30
2019-03-08T05:19:23.813Z,81.90
2019-03-08T05:21:52.621Z,81.30
2019-03-08T05:24:21.213Z,81.30
2019-03-08T05:26:49.807Z,81.10
2019-03-08T05:29:18.395Z,81.00
2019-03-08T05:31:49.824Z,81.00
2019-03-08T05:34:18.442Z,81.30
2019-03-08T05:36:47.049Z,81.10
2019-03-08T05:39:18.257Z,81.00
2019-03-08T05:41:46.844Z,81.30
2019-03-08T05:44:15.468Z,81.30
2019-03-08T05:46:44.429Z,81.20
2019-03-08T05:49:13.152Z,80.90
2019-03-08T05:51:41.915Z,80.60
2019-03-08T05:54:10.525Z,80.50
2019-03-08T05:56:39.240Z,81.30
2019-03-08T05:59:07.908Z,80.00
2019-03-08T06:01:36.627Z,80.20
2019-03-08T06:04:05.303Z,79.60
2019-03-08T06:06:33.903Z,79.80
2019-03-08T06:09:04.850Z,80.10
2019-03-08T06:11:33.491Z,80.20
2019-03-08T06:14:03.627Z,80.20
2019-03-08T06:16:32.297Z,80.40
2019-03-08T06:19:00.887Z,80.40
2019-03-08T06:21:29.488Z,80.80
2019-03-08T06:23:58.070Z,80.90
2019-03-08T06:26:26.676Z,81.40
2019-03-08T06:28:55.324Z,81.60
2019-03-08T06:31:23.922Z,81.40
2019-03-08T06:33:52.581Z,81.20
2019-03-08T06:36:21.242Z,80.80
2019-03-08T06:38:49.859Z,81.70
2019-03-08T06:41:18.501Z,80.50
2019-03-08T06:43:47.129Z,80.60
2019-03-08T06:46:15.850Z,81.00
2019-03-08T06:48:44.448Z,81.10
2019-03-08T06:51:13.256Z,80.90
2019-03-08T06:53:41.865Z,81.30
2019-03-08T06:56:10.446Z,81.80
2019-03-08T06:58:47.752Z,82.50
2019-03-08T07:01:22.554Z,82.00
2019-03-08T07:03:51.471Z,82.40
2019-03-08T07:06:20.108Z,82.30
2019-03-08T07:08:48.700Z,81.80
2019-03-08T07:11:17.437Z,81.40
2019-03-08T07:13:46.311Z,81.30
2019-03-08T07:16:34.568Z,80.70
2019-03-08T07:19:05.367Z,81.00
2019-03-08T07:21:44.632Z,80.60
2019-03-08T07:24:31.129Z,80.80
2019-03-08T07:27:37.352Z,80.20
2019-03-08T07:30:27.446Z,80.50
2019-03-08T07:33:02.663Z,80.10
2019-03-08T07:35:49.008Z,80.10
2019-03-08T07:38:42.887Z,80.40
2019-03-08T07:41:49.974Z,80.70
2019-03-08T07:44:36.500Z,80.90
2019-03-08T07:47:29.430Z,80.70
2019-03-08T07:50:42.601Z,80.00
2019-03-08T07:53:21.576Z,80.00
2019-03-08T07:56:06.278Z,80.10
2019-03-08T07:58:53.148Z,80.00
2019-03-08T08:01:43.652Z,79.10
2019-03-08T08:04:36.764Z,77.80
2019-03-08T08:07:21.310Z,78.40
2019-03-08T08:09:59.669Z,78.10
2019-03-08T08:13:00.056Z,78.50
2019-03-08T08:15:50.710Z,78.20
2019-03-08T08:18:35.169Z,78.50
2019-03-08T08:21:18.337Z,78.80
2019-03-08T08:23:59.160Z,78.70
2019-03-08T08:26:59.247Z,78.50
2019-03-08T08:29:56.101Z,78.40
2019-03-08T08:32:43.834Z,78.30
2019-03-08T08:35:28.312Z,78.50
2019-03-08T08:38:06.315Z,78.60
2019-03-08T08:40:52.662Z,78.60
2019-03-08T08:46:48.622Z,77.30
2019-03-08T08:49:38.372Z,77.30
2019-03-08T08:52:33.125Z,77.50
2019-03-08T08:55:13.453Z,77.60
2019-03-08T08:58:01.599Z,76.30
2019-03-08T09:00:36.218Z,75.70
2019-03-08T09:03:42.465Z,75.60
2019-03-08T09:06:22.935Z,75.40
2019-03-08T09:09:10.692Z,75.20
2019-03-08T09:12:01.385Z,76.40
2019-03-08T09:14:34.560Z,75.50
2019-03-08T09:17:24.182Z,75.30
2019-03-08T09:20:10.265Z,75.50
2019-03-08T09:22:56.951Z,76.20
2019-03-08T09:25:30.786Z,76.30
2019-03-08T09:28:30.617Z,76.80
2019-03-08T09:31:25.111Z,76.30
2019-03-08T09:34:18.715Z,76.10
2019-03-08T09:36:59.700Z,75.80
2019-03-08T09:39:53.469Z,75.40
2019-03-08T09:42:35.343Z,74.10
2019-03-08T09:45:25.807Z,75.00
2019-03-08T09:48:01.190Z,74.40
2019-03-08T09:50:44.508Z,73.10
2019-03-08T09:53:20.260Z,72.90
2019-03-08T09:56:07.988Z,73.80
2019-03-08T09:58:46.017Z,73.10
2019-03-08T10:01:36.664Z,73.70
2019-03-08T10:04:23.790Z,74.20
2019-03-08T10:06:58.170Z,73.90
2019-03-08T10:09:49.655Z,75.20
2019-03-08T10:12:29.377Z,73.10
2019-03-08T10:15:17.125Z,73.40
2019-03-08T10:18:05.041Z,73.70
2019-03-08T10:20:45.384Z,73.30
2019-03-08T10:23:31.814Z,72.00
2019-03-08T10:26:12.575Z,72.50
2019-03-08T10:29:05.403Z,72.30
2019-03-08T10:31:44.079Z,72.10
2019-03-08T10:34:30.833Z,70.70
2019-03-08T10:37:15.213Z,70.80
2019-03-08T10:40:05.674Z,72.90
2019-03-08T10:42:56.590Z,73.40
2019-03-08T10:48:42.026Z,72.80
2019-03-08T10:51:25.053Z,71.40
2019-03-08T10:54:11.829Z,71.10
2019-03-08T10:57:05.775Z,71.70
2019-03-08T10:59:55.820Z,70.10
2019-03-08T11:02:48.220Z,71.00
2019-03-08T11:05:23.292Z,70.60
2019-03-08T11:08:19.106Z,71.90
2019-03-08T11:11:16.257Z,71.90
2019-03-08T11:13:57.929Z,67.90
2019-03-08T11:16:48.506Z,68.80
2019-03-08T11:19:39.436Z,67.40
2019-03-08T11:22:28.981Z,70.10
2019-03-08T11:25:15.685Z,70.10
2019-03-08T11:28:05.660Z,70.80
2019-03-08T11:30:55.442Z,70.30
2019-03-08T11:33:44.790Z,67.60
2019-03-08T11:36:27.579Z,68.90
2019-03-08T11:39:13.489Z,67.50
2019-03-08T11:41:58.624Z,68.10
2019-03-08T11:44:43.196Z,68.10
2019-03-08T11:47:28.258Z,67.50
2019-03-08T11:50:23.861Z,66.70
2019-03-08T11:53:06.377Z,68.20
2019-03-08T11:55:57.217Z,65.30
2019-03-08T11:58:43.699Z,65.50
2019-03-08T12:01:30.227Z,64.80
2019-03-08T12:04:06.423Z,64.50
2019-03-08T12:06:47.623Z,63.80
2019-03-08T12:09:45.729Z,65.00
2019-03-08T12:12:43.884Z,66.90
2019-03-08T12:15:39.249Z,64.10
2019-03-08T12:18:31.107Z,65.20
2019-03-08T12:21:20.133Z,65.80
2019-03-08T12:24:42.589Z,65.50
2019-03-08T12:27:18.021Z,64.00
2019-03-08T12:29:54.631Z,64.80
2019-03-08T12:32:37.455Z,65.20
2019-03-08T12:35:21.397Z,65.30
2019-03-08T12:38:13.604Z,63.60
2019-03-08T12:41:04.068Z,65.00
2019-03-08T12:43:41.197Z,65.10
2019-03-08T12:46:20.468Z,64.50
2019-03-08T12:48:55.831Z,64.20
2019-03-08T12:51:29.167Z,62.90
2019-03-08T12:54:16.827Z,64.40
2019-03-08T12:57:04.485Z,62.80
2019-03-08T13:00:01.412Z,63.60
2019-03-08T13:02:49.975Z,64.50
2019-03-08T13:05:37.663Z,64.30
2019-03-08T13:08:28.380Z,63.90
2019-03-08T13:10:57.004Z,63.70
2019-03-08T13:13:25.635Z,63.90
2019-03-08T13:15:54.267Z,63.30
2019-03-08T13:18:22.996Z,65.30
2019-03-08T13:20:53.473Z,64.60
2019-03-08T13:23:22.084Z,63.80
2019-03-08T13:25:50.711Z,64.30
2019-03-08T13:28:19.302Z,63.50
2019-03-08T13:30:47.936Z,62.40
2019-03-08T13:33:16.628Z,62.30
2019-03-08T13:35:45.216Z,62.80
2019-03-08T13:38:13.885Z,63.10
2019-03-08T13:40:42.484Z,63.30
2019-03-08T13:43:11.074Z,63.50
2019-03-08T13:45:40.087Z,64.70
2019-03-08T13:48:08.720Z,65.40
2019-03-08T13:50:37.311Z,64.10
2019-03-08T13:53:07.769Z,63.80
2019-03-08T13:55:36.401Z,65.50
2019-03-08T13:58:05.084Z,64.00
2019-03-08T14:00:33.776Z,64.20
2019-03-08T14:03:03.079Z,64.00
2019-03-08T14:05:31.799Z,64.50
2019-03-08T14:08:00.421Z,65.50
2019-03-08T14:10:29.018Z,65.30
2019-03-08T14:12:57.640Z,65.20
2019-03-08T14:15:26.198Z,66.10
2019-03-08T14:17:57.057Z,65.50
2019-03-08T14:20:25.689Z,67.10
2019-03-08T14:22:54.296Z,65.00
2019-03-08T14:25:22.908Z,64.80
2019-03-08T14:27:51.489Z,64.50
2019-03-08T14:30:21.356Z,65.40
2019-03-08T14:32:49.952Z,65.10
2019-03-08T14:35:18.636Z,64.80
2019-03-08T14:37:47.476Z,65.80
2019-03-08T14:40:36.458Z,66.70
2019-03-08T14:43:20.479Z,65.80
2019-03-08T14:45:56.846Z,66.90
2019-03-08T14:48:25.532Z,66.90
2019-03-08T14:50:54.158Z,66.00
2019-03-08T14:53:22.755Z,66.40
2019-03-08T14:55:51.338Z,68.10
2019-03-08T14:58:19.935Z,68.70
2019-03-08T15:00:48.544Z,68.50
2019-03-08T15:03:20.184Z,69.50
2019-03-08T15:05:51.001Z,68.70
2019-03-08T15:08:19.199Z,69.40
2019-03-08T15:10:51.148Z,69.50
2019-03-08T15:13:20.145Z,69.20
2019-03-08T15:15:48.688Z,69.70
2019-03-08T15:18:17.459Z,69.10
2019-03-08T15:20:46.078Z,70.60
2019-03-08T15:23:17.202Z,69.20
2019-03-08T15:25:49.108Z,70.00
2019-03-08T15:28:18.960Z,69.60
2019-03-08T15:30:47.555Z,69.50
2019-03-08T15:33:17.865Z,68.80
2019-03-08T15:35:47.059Z,68.80
2019-03-08T15:38:16.040Z,69.10
2019-03-08T15:40:44.647Z,68.70
2019-03-08T15:43:14.670Z,69.10
2019-03-08T15:45:44.477Z,69.20
2019-03-08T15:48:15.952Z,70.10
2019-03-08T15:50:46.749Z,69.80
2019-03-08T15:53:17.306Z,69.50
2019-03-08T15:55:52.882Z,68.60
2019-03-08T15:58:16.625Z,68.80
2019-03-08T16:00:45.268Z,68.70
2019-03-08T16:03:13.890Z,69.50
2019-03-08T16:05:42.526Z,70.10
2019-03-08T16:08:11.533Z,69.90
2019-03-08T16:10:40.217Z,69.70
2019-03-08T16:13:08.811Z,70.00
2019-03-08T16:15:37.444Z,70.00
2019-03-08T16:18:07.333Z,69.50
2019-03-08T16:20:37.360Z,69.30
2019-03-08T16:23:06.921Z,69.40
2019-03-08T16:25:40.524Z,69.70
2019-03-08T16:28:07.518Z,69.70
2019-03-08T16:30:39.453Z,69.40
2019-03-08T16:36:39.408Z,68.30
2019-03-08T16:39:24.778Z,68.60
2019-03-08T16:42:16.652Z,68.60
2019-03-08T16:45:15.575Z,69.20
2019-03-08T16:48:10.880Z,69.80
2019-03-08T16:51:04.200Z,69.60
2019-03-08T16:53:50.991Z,69.20
2019-03-08T16:56:33.581Z,69.10
2019-03-08T16:59:33.417Z,69.10
2019-03-08T17:02:13.713Z,68.40
2019-03-08T17:05:10.268Z,68.20
2019-03-08T17:07:57.009Z,68.30
2019-03-08T17:10:49.159Z,68.70
2019-03-08T17:13:33.342Z,68.90
2019-03-08T17:16:10.305Z,68.40
2019-03-08T17:18:52.728Z,69.20
2019-03-08T17:21:28.988Z,69.10
2019-03-08T17:24:19.469Z,69.20
2019-03-08T17:27:11.069Z,69.50
2019-03-08T17:30:03.316Z,70.30
2019-03-08T17:33:09.281Z,69.70
2019-03-08T17:35:59.931Z,69.60
2019-03-08T17:38:36.088Z,69.60
2019-03-08T17:41:12.257Z,69.50
2019-03-08T17:43:59.031Z,69.90
2019-03-08T17:46:49.765Z,70.70
2019-03-08T17:49:37.447Z,71.20
2019-03-08T17:52:31.255Z,71.70
2019-03-08T17:55:17.658Z,71.70
2019-03-08T17:57:57.075Z,71.60
2019-03-08T18:00:34.719Z,70.80
2019-03-08T18:03:09.786Z,70.50
2019-03-08T18:06:22.815Z,70.90
2019-03-08T18:08:58.423Z,71.10
2019-03-08T18:11:44.904Z,71.20
2019-03-08T18:14:26.792Z,71.50
2019-03-08T18:17:24.002Z,71.90
2019-03-08T18:20:17.836Z,71.90
2019-03-08T18:22:59.861Z,72.00
2019-03-08T18:25:37.137Z,71.80
2019-03-08T18:28:27.957Z,72.00
2019-03-08T18:31:02.971Z,72.70
2019-03-08T18:34:02.819Z,72.40
2019-03-08T18:36:56.922Z,72.50
2019-03-08T18:39:43.554Z,72.70
2019-03-08T18:42:38.457Z,72.80
2019-03-08T18:45:33.628Z,72.90
2019-03-08T18:48:33.590Z,72.80
2019-03-08T18:51:19.941Z,73.10
2019-03-08T18:54:19.748Z,73.60
2019-03-08T18:57:13.335Z,73.60
2019-03-08T18:59:59.995Z,73.00
2019-03-08T19:02:56.299Z,72.60
2019-03-08T19:05:44.095Z,72.50
2019-03-08T19:08:31.586Z,72.60
2019-03-08T19:11:10.194Z,72.80
2019-03-08T19:14:02.700Z,72.90
2019-03-08T19:16:51.039Z,73.20
2019-03-08T19:19:27.199Z,73.30
2019-03-08T19:22:10.419Z,73.70
2019-03-08T19:24:52.451Z,74.00
2019-03-08T19:27:49.165Z,74.30
2019-03-08T19:30:30.323Z,74.60
2019-03-08T19:33:17.164Z,75.50
2019-03-08T19:35:57.453Z,74.80
2019-03-08T19:38:51.019Z,74.50
2019-03-08T19:41:29.165Z,72.90
2019-03-08T19:44:08.917Z,72.80
2019-03-08T19:47:03.050Z,75.30
2019-03-08T19:49:49.424Z,77.70
2019-03-08T19:52:40.787Z,79.30
2019-03-08T19:55:22.964Z,80.60
2019-03-08T19:58:13.769Z,80.70
2019-03-08T20:00:51.949Z,81.30
2019-03-08T20:03:32.636Z,82.40
2019-03-08T20:06:20.311Z,83.40
2019-03-08T20:09:03.957Z,84.40
2019-03-08T20:11:53.278Z,85.40
2019-03-08T20:14:33.639Z,86.10
2019-03-08T20:17:21.784Z,86.40
2019-03-08T20:20:12.319Z,85.30
2019-03-08T20:23:02.817Z,83.90
2019-03-08T20:25:59.337Z,84.10
2019-03-08T20:28:45.471Z,84.80
2019-03-08T20:31:21.960Z,84.60
2019-03-08T20:34:13.354Z,84.70
2019-03-08T20:36:59.968Z,84.40
2019-03-08T20:39:35.613Z,84.40
2019-03-08T20:42:22.559Z,84.30
2019-03-08T20:45:00.382Z,84.60
2019-03-08T20:47:31.363Z,83.90
2019-03-08T20:49:59.997Z,84.40
2019-03-08T20:52:28.616Z,83.90
2019-03-08T20:54:57.310Z,83.70
2019-03-08T20:57:45.248Z,83.90
2019-03-08T21:00:15.433Z,83.60
2019-03-08T21:02:44.028Z,83.10
2019-03-08T21:05:31.941Z,82.90
2019-03-08T21:08:00.543Z,83.00
2019-03-08T21:10:29.413Z,83.10
2019-03-08T21:12:57.990Z,83.20
2019-03-08T21:15:26.591Z,83.70
2019-03-08T21:17:55.179Z,83.50
2019-03-08T21:20:23.757Z,83.60
2019-03-08T21:22:52.383Z,83.90
2019-03-08T21:25:34.166Z,84.40
2019-03-08T21:28:00.170Z,84.10
2019-03-08T21:30:30.969Z,84.50
2019-03-08T21:33:04.047Z,84.40
2019-03-08T21:35:32.655Z,85.10
2019-03-08T21:38:02.630Z,85.20
2019-03-08T21:40:32.443Z,85.00
2019-03-08T21:43:01.025Z,85.30
2019-03-08T21:45:29.638Z,86.20
2019-03-08T21:47:58.565Z,86.50
2019-03-08T21:50:27.195Z,86.50
2019-03-08T21:52:55.806Z,86.40
2019-03-08T21:55:24.463Z,86.60
2019-03-08T21:57:53.161Z,87.20
2019-03-08T22:00:22.343Z,87.30
2019-03-08T22:02:50.927Z,87.70
2019-03-08T22:05:25.727Z,87.90
2019-03-08T22:07:54.364Z,88.00
2019-03-08T22:10:31.821Z,88.10
2019-03-08T22:13:00.424Z,88.50
2019-03-08T22:15:48.343Z,88.80
2019-03-08T22:18:17.105Z,88.90
2019-03-08T22:20:45.699Z,89.40
2019-03-08T22:23:16.290Z,89.30
2019-03-08T22:25:44.644Z,89.50
2019-03-08T22:28:13.269Z,89.70
2019-03-08T22:30:42.272Z,89.60
2019-03-08T22:33:10.843Z,90.00
2019-03-08T22:35:39.655Z,90.10
2019-03-08T22:38:08.697Z,90.10
2019-03-08T22:40:37.340Z,90.20
2019-03-08T22:43:06.017Z,90.30
2019-03-08T22:45:34.679Z,90.20
2019-03-08T22:48:05.079Z,90.30
2019-03-08T22:50:34.926Z,90.30
2019-03-08T22:53:04.162Z,90.40
2019-03-08T22:55:32.876Z,90.50
2019-03-08T22:58:01.557Z,90.60
2019-03-08T23:00:54.329Z,90.60
2019-03-08T23:03:23.090Z,90.40
2019-03-08T23:05:51.912Z,90.50
2019-03-08T23:08:20.943Z,90.60
2019-03-08T23:10:49.631Z,90.60
2019-03-08T23:13:18.439Z,90.60
2019-03-08T23:15:47.335Z,90.50
2019-03-08T23:18:16.274Z,90.60
2019-03-08T23:20:44.930Z,90.50
2019-03-08T23:23:13.997Z,90.30
2019-03-08T23:25:42.981Z,90.30
2019-03-08T23:28:23.401Z,90.40
2019-03-08T23:30:54.918Z,90.60
2019-03-08T23:33:23.924Z,90.60
2019-03-08T23:35:52.635Z,90.60
2019-03-08T23:38:21.267Z,90.70
2019-03-08T23:40:49.874Z,90.60
2019-03-08T23:43:18.524Z,90.60
2019-03-08T23:45:47.166Z,90.70
2019-03-08T23:48:19.050Z,90.80
2019-03-08T23:50:47.731Z,90.90
2019-03-08T23:53:18.771Z,90.90
2019-03-08T23:55:47.355Z,91.00
2019-03-08T23:58:16.089Z,91.10
